sensor_id;sensor_type;location;lat;lon;timestamp;pressure;altitude;pressure_sealevel;temperature;humidity
69624;BME280;56843;52.020;5.670;2023-04-16T00:00:54;101959.28;;;13.37;57.92
69624;BME280;56843;52.020;5.670;2023-04-16T00:02:24;101962.44;;;13.39;57.98
69624;BME280;56843;52.020;5.670;2023-04-16T00:03:55;101961.31;;;13.40;58.00
69624;BME280;56843;52.020;5.670;2023-04-16T00:05:25;101969.06;;;13.41;58.14
69624;BME280;56843;52.020;5.670;2023-04-16T00:06:56;101964.94;;;13.44;58.27
69624;BME280;56843;52.020;5.670;2023-04-16T00:08:27;101960.38;;;13.44;58.23
69624;BME280;56843;52.020;5.670;2023-04-16T00:09:57;101962.75;;;13.46;57.99
69624;BME280;56843;52.020;5.670;2023-04-16T00:11:28;101970.78;;;13.46;57.95
69624;BME280;56843;52.020;5.670;2023-04-16T00:12:58;101960.84;;;13.46;58.13
69624;BME280;56843;52.020;5.670;2023-04-16T00:14:29;101967.00;;;13.47;58.36
69624;BME280;56843;52.020;5.670;2023-04-16T00:15:59;101959.75;;;13.47;58.00
69624;BME280;56843;52.020;5.670;2023-04-16T00:17:30;101961.31;;;13.48;58.32
69624;BME280;56843;52.020;5.670;2023-04-16T00:19:00;101962.91;;;13.49;58.28
69624;BME280;56843;52.020;5.670;2023-04-16T00:20:30;101963.72;;;13.50;58.26
69624;BME280;56843;52.020;5.670;2023-04-16T00:22:01;101957.56;;;13.49;58.17
69624;BME280;56843;52.020;5.670;2023-04-16T00:23:31;101959.13;;;13.50;58.14
69624;BME280;56843;52.020;5.670;2023-04-16T00:25:02;101969.09;;;13.50;58.28
69624;BME280;56843;52.020;5.670;2023-04-16T00:26:33;101951.38;;;13.49;58.42
69624;BME280;56843;52.020;5.670;2023-04-16T00:28:03;101960.72;;;13.51;58.59
69624;BME280;56843;52.020;5.670;2023-04-16T00:29:34;101967.97;;;13.51;58.52
69624;BME280;56843;52.020;5.670;2023-04-16T00:31:05;101967.97;;;13.51;58.30
69624;BME280;56843;52.020;5.670;2023-04-16T00:32:35;101959.91;;;13.51;58.57
69624;BME280;56843;52.020;5.670;2023-04-16T00:34:06;101969.56;;;13.52;58.31
69624;BME280;56843;52.020;5.670;2023-04-16T00:35:36;101962.31;;;13.52;58.32
69624;BME280;56843;52.020;5.670;2023-04-16T00:37:07;101958.03;;;13.51;58.33
69624;BME280;56843;52.020;5.670;2023-04-16T00:38:37;101965.75;;;13.53;58.68
69624;BME280;56843;52.020;5.670;2023-04-16T00:40:08;101967.34;;;13.54;58.62
69624;BME280;56843;52.020;5.670;2023-04-16T00:41:38;101960.09;;;13.54;58.45
69624;BME280;56843;52.020;5.670;2023-04-16T00:43:09;101961.97;;;13.54;58.54
69624;BME280;56843;52.020;5.670;2023-04-16T00:44:39;101960.84;;;13.55;58.52
69624;BME280;56843;52.020;5.670;2023-04-16T00:46:10;101957.41;;;13.54;58.61
69624;BME280;56843;52.020;5.670;2023-04-16T00:47:41;101959.63;;;13.52;58.80
69624;BME280;56843;52.020;5.670;2023-04-16T00:49:12;101960.09;;;13.54;58.74
69624;BME280;56843;52.020;5.670;2023-04-16T00:50:42;101963.06;;;13.53;58.56
69624;BME280;56843;52.020;5.670;2023-04-16T00:52:13;101954.72;;;13.54;59.07
69624;BME280;56843;52.020;5.670;2023-04-16T00:53:44;101957.09;;;13.56;58.97
69624;BME280;56843;52.020;5.670;2023-04-16T00:55:16;101955.81;;;13.53;59.00
69624;BME280;56843;52.020;5.670;2023-04-16T00:56:48;101960.84;;;13.55;58.69
69624;BME280;56843;52.020;5.670;2023-04-16T00:58:19;101963.25;;;13.56;59.08
69624;BME280;56843;52.020;5.670;2023-04-16T00:59:50;101950.91;;;13.55;58.74
69624;BME280;56843;52.020;5.670;2023-04-16T01:03:01;101965.13;;;13.56;59.03
69624;BME280;56843;52.020;5.670;2023-04-16T01:04:33;101960.56;;;13.56;59.13
69624;BME280;56843;52.020;5.670;2023-04-16T01:06:05;101961.66;;;13.55;59.04
69624;BME280;56843;52.020;5.670;2023-04-16T01:07:35;101962.13;;;13.57;59.12
69624;BME280;56843;52.020;5.670;2023-04-16T01:09:06;101957.88;;;13.56;59.20
69624;BME280;56843;52.020;5.670;2023-04-16T01:10:36;101961.34;;;13.57;58.92
69624;BME280;56843;52.020;5.670;2023-04-16T01:12:07;101958.19;;;13.55;59.03
69624;BME280;56843;52.020;5.670;2023-04-16T01:13:37;101970.50;;;13.56;58.94
69624;BME280;56843;52.020;5.670;2023-04-16T01:15:09;101960.25;;;13.58;58.93
69624;BME280;56843;52.020;5.670;2023-04-16T01:16:40;101964.00;;;13.57;59.07
69624;BME280;56843;52.020;5.670;2023-04-16T01:18:18;101956.75;;;13.57;58.89
69624;BME280;56843;52.020;5.670;2023-04-16T01:19:49;101949.34;;;13.54;59.19
69624;BME280;56843;52.020;5.670;2023-04-16T01:21:19;101958.97;;;13.55;59.41
69624;BME280;56843;52.020;5.670;2023-04-16T01:22:50;101957.41;;;13.54;59.18
69624;BME280;56843;52.020;5.670;2023-04-16T01:24:20;101962.78;;;13.54;59.42
69624;BME280;56843;52.020;5.670;2023-04-16T01:25:51;101962.78;;;13.54;59.50
69624;BME280;56843;52.020;5.670;2023-04-16T01:27:21;101961.19;;;13.53;59.48
69624;BME280;56843;52.020;5.670;2023-04-16T01:28:52;101963.88;;;13.53;59.22
69624;BME280;56843;52.020;5.670;2023-04-16T01:30:22;101957.69;;;13.53;59.36
69624;BME280;56843;52.020;5.670;2023-04-16T01:32:03;101963.38;;;13.51;59.49
69624;BME280;56843;52.020;5.670;2023-04-16T01:33:43;101959.13;;;13.50;59.77
69624;BME280;56843;52.020;5.670;2023-04-16T01:35:15;101967.66;;;13.52;59.25
69624;BME280;56843;52.020;5.670;2023-04-16T01:36:47;101970.66;;;13.51;59.35
69624;BME280;56843;52.020;5.670;2023-04-16T01:38:18;101971.13;;;13.53;59.64
69624;BME280;56843;52.020;5.670;2023-04-16T01:39:48;101970.03;;;13.54;59.31
69624;BME280;56843;52.020;5.670;2023-04-16T01:41:19;101970.34;;;13.52;59.27
69624;BME280;56843;52.020;5.670;2023-04-16T01:42:50;101959.28;;;13.54;59.40
69624;BME280;56843;52.020;5.670;2023-04-16T01:44:20;101956.94;;;13.52;59.29
69624;BME280;56843;52.020;5.670;2023-04-16T01:46:06;101956.28;;;13.55;59.73
69624;BME280;56843;52.020;5.670;2023-04-16T01:47:40;101948.09;;;13.52;59.85
69624;BME280;56843;52.020;5.670;2023-04-16T01:49:10;101949.19;;;13.51;59.51
69624;BME280;56843;52.020;5.670;2023-04-16T01:50:41;101958.50;;;13.53;59.52
69624;BME280;56843;52.020;5.670;2023-04-16T01:52:11;101956.59;;;13.54;59.65
69624;BME280;56843;52.020;5.670;2023-04-16T01:53:42;101960.09;;;13.54;59.49
69624;BME280;56843;52.020;5.670;2023-04-16T01:55:12;101960.09;;;13.54;59.79
69624;BME280;56843;52.020;5.670;2023-04-16T01:56:43;101957.69;;;13.53;59.43
69624;BME280;56843;52.020;5.670;2023-04-16T01:58:13;101957.69;;;13.53;59.47
69624;BME280;56843;52.020;5.670;2023-04-16T01:59:44;101965.47;;;13.54;59.78
69624;BME280;56843;52.020;5.670;2023-04-16T02:01:15;101971.91;;;13.53;59.79
69624;BME280;56843;52.020;5.670;2023-04-16T02:02:46;101972.72;;;13.54;59.61
69624;BME280;56843;52.020;5.670;2023-04-16T02:04:22;101966.88;;;13.52;59.90
69624;BME280;56843;52.020;5.670;2023-04-16T02:05:52;101971.13;;;13.53;59.85
69624;BME280;56843;52.020;5.670;2023-04-16T02:07:23;101963.88;;;13.53;59.78
69624;BME280;56843;52.020;5.670;2023-04-16T02:08:54;101966.06;;;13.51;59.86
69624;BME280;56843;52.020;5.670;2023-04-16T02:10:24;101976.19;;;13.54;59.82
69624;BME280;56843;52.020;5.670;2023-04-16T02:11:55;101970.34;;;13.52;59.49
69624;BME280;56843;52.020;5.670;2023-04-16T02:13:26;101964.47;;;13.50;59.97
69624;BME280;56843;52.020;5.670;2023-04-16T02:14:56;101974.59;;;13.53;59.80
69624;BME280;56843;52.020;5.670;2023-04-16T02:16:29;101973.50;;;13.54;59.86
69624;BME280;56843;52.020;5.670;2023-04-16T02:18:07;101965.47;;;13.54;59.74
69624;BME280;56843;52.020;5.670;2023-04-16T02:19:39;101968.16;;;13.54;59.75
69624;BME280;56843;52.020;5.670;2023-04-16T02:21:10;101968.44;;;13.53;59.60
69624;BME280;56843;52.020;5.670;2023-04-16T02:22:41;101966.22;;;13.55;59.94
69624;BME280;56843;52.020;5.670;2023-04-16T02:24:14;101967.66;;;13.52;59.89
69624;BME280;56843;52.020;5.670;2023-04-16T02:25:46;101962.78;;;13.54;59.96
69624;BME280;56843;52.020;5.670;2023-04-16T02:27:17;101968.44;;;13.53;60.07
69624;BME280;56843;52.020;5.670;2023-04-16T02:28:48;101965.47;;;13.54;60.05
69624;BME280;56843;52.020;5.670;2023-04-16T02:30:19;101966.22;;;13.55;60.08
69624;BME280;56843;52.020;5.670;2023-04-16T02:31:50;101960.09;;;13.54;59.62
69624;BME280;56843;52.020;5.670;2023-04-16T02:33:21;101967.03;;;13.55;59.79
69624;BME280;56843;52.020;5.670;2023-04-16T02:35:06;101959.63;;;13.52;59.95
69624;BME280;56843;52.020;5.670;2023-04-16T02:36:37;101960.38;;;13.53;59.64
69624;BME280;56843;52.020;5.670;2023-04-16T02:38:08;101965.47;;;13.54;59.88
69624;BME280;56843;52.020;5.670;2023-04-16T02:39:39;101957.69;;;13.53;59.92
69624;BME280;56843;52.020;5.670;2023-04-16T02:41:10;101966.69;;;13.57;59.82
69624;BME280;56843;52.020;5.670;2023-04-16T02:42:40;101965.47;;;13.54;59.83
69624;BME280;56843;52.020;5.670;2023-04-16T02:44:11;101966.22;;;13.55;60.03
69624;BME280;56843;52.020;5.670;2023-04-16T02:45:42;101957.41;;;13.54;59.88
69624;BME280;56843;52.020;5.670;2023-04-16T02:47:13;101965.47;;;13.54;59.82
69624;BME280;56843;52.020;5.670;2023-04-16T02:48:44;101965.47;;;13.54;60.12
69624;BME280;56843;52.020;5.670;2023-04-16T02:50:15;101965.47;;;13.54;59.88
69624;BME280;56843;52.020;5.670;2023-04-16T02:51:46;101967.34;;;13.54;59.83
69624;BME280;56843;52.020;5.670;2023-04-16T02:53:16;101963.06;;;13.53;60.10
69624;BME280;56843;52.020;5.670;2023-04-16T02:54:46;101967.34;;;13.54;60.08
69624;BME280;56843;52.020;5.670;2023-04-16T02:56:17;101969.22;;;13.53;59.89
69624;BME280;56843;52.020;5.670;2023-04-16T02:57:47;101962.31;;;13.52;60.04
69624;BME280;56843;52.020;5.670;2023-04-16T02:59:18;101978.09;;;13.54;60.07
69624;BME280;56843;52.020;5.670;2023-04-16T03:00:49;101973.31;;;13.51;60.04
69624;BME280;56843;52.020;5.670;2023-04-16T03:02:20;101973.03;;;13.52;60.21
69624;BME280;56843;52.020;5.670;2023-04-16T03:03:50;101965.28;;;13.51;60.09
69624;BME280;56843;52.020;5.670;2023-04-16T03:05:21;101973.81;;;13.53;60.25
69624;BME280;56843;52.020;5.670;2023-04-16T03:06:51;101967.66;;;13.52;59.86
69624;BME280;56843;52.020;5.670;2023-04-16T03:08:22;101983.78;;;13.52;59.98
69624;BME280;56843;52.020;5.670;2023-04-16T03:09:52;101973.03;;;13.52;59.90
69624;BME280;56843;52.020;5.670;2023-04-16T03:11:23;101982.19;;;13.51;59.88
69624;BME280;56843;52.020;5.670;2023-04-16T03:12:53;101973.31;;;13.51;60.06
69624;BME280;56843;52.020;5.670;2023-04-16T03:14:24;101974.13;;;13.51;60.27
69624;BME280;56843;52.020;5.670;2023-04-16T03:15:55;101977.91;;;13.50;59.80
69624;BME280;56843;52.020;5.670;2023-04-16T03:17:25;101980.59;;;13.50;60.12
69624;BME280;56843;52.020;5.670;2023-04-16T03:18:55;101985.94;;;13.50;59.92
69624;BME280;56843;52.020;5.670;2023-04-16T03:20:26;101979.81;;;13.50;60.13
69624;BME280;56843;52.020;5.670;2023-04-16T03:21:57;101987.88;;;13.50;60.23
69624;BME280;56843;52.020;5.670;2023-04-16T03:23:27;101988.97;;;13.49;60.26
69624;BME280;56843;52.020;5.670;2023-04-16T03:24:57;101993.22;;;13.50;60.15
69624;BME280;56843;52.020;5.670;2023-04-16T03:26:28;101990.56;;;13.50;60.07
69624;BME280;56843;52.020;5.670;2023-04-16T03:27:59;101989.75;;;13.49;60.20
69624;BME280;56843;52.020;5.670;2023-04-16T03:29:30;101991.63;;;13.49;60.22
69624;BME280;56843;52.020;5.670;2023-04-16T03:31:01;101988.16;;;13.48;60.33
69624;BME280;56843;52.020;5.670;2023-04-16T03:32:33;101991.63;;;13.49;60.45
69624;BME280;56843;52.020;5.670;2023-04-16T03:34:04;101996.22;;;13.48;60.11
69624;BME280;56843;52.020;5.670;2023-04-16T03:35:35;101993.53;;;13.48;60.48
69624;BME280;56843;52.020;5.670;2023-04-16T03:37:06;102004.25;;;13.48;60.43
69624;BME280;56843;52.020;5.670;2023-04-16T03:38:41;102003.16;;;13.49;60.17
69624;BME280;56843;52.020;5.670;2023-04-16T03:40:12;101997.00;;;13.49;60.61
69624;BME280;56843;52.020;5.670;2023-04-16T03:41:42;101993.53;;;13.48;60.31
69624;BME280;56843;52.020;5.670;2023-04-16T03:43:13;101995.13;;;13.49;60.33
69624;BME280;56843;52.020;5.670;2023-04-16T03:44:43;101995.44;;;13.48;60.33
69624;BME280;56843;52.020;5.670;2023-04-16T03:46:14;101991.97;;;13.47;60.37
69624;BME280;56843;52.020;5.670;2023-04-16T03:47:44;101992.75;;;13.48;60.72
69624;BME280;56843;52.020;5.670;2023-04-16T03:49:18;101999.69;;;13.49;60.31
69624;BME280;56843;52.020;5.670;2023-04-16T03:50:48;101991.97;;;13.47;60.24
69624;BME280;56843;52.020;5.670;2023-04-16T03:52:21;101995.44;;;13.48;60.34
69624;BME280;56843;52.020;5.670;2023-04-16T03:53:51;101993.84;;;13.47;60.23
69624;BME280;56843;52.020;5.670;2023-04-16T03:55:22;101992.75;;;13.48;60.50
69624;BME280;56843;52.020;5.670;2023-04-16T03:56:53;101997.34;;;13.47;60.29
69624;BME280;56843;52.020;5.670;2023-04-16T03:58:23;101996.53;;;13.47;60.46
69624;BME280;56843;52.020;5.670;2023-04-16T03:59:55;101996.53;;;13.47;60.21
69624;BME280;56843;52.020;5.670;2023-04-16T04:01:26;101994.66;;;13.47;60.39
69624;BME280;56843;52.020;5.670;2023-04-16T04:02:56;101990.06;;;13.48;60.46
69624;BME280;56843;52.020;5.670;2023-04-16T04:04:27;102000.81;;;13.48;60.33
69624;BME280;56843;52.020;5.670;2023-04-16T04:05:57;102001.91;;;13.47;60.46
69624;BME280;56843;52.020;5.670;2023-04-16T04:07:33;101998.41;;;13.46;60.35
69624;BME280;56843;52.020;5.670;2023-04-16T04:09:04;101999.22;;;13.47;60.16
69624;BME280;56843;52.020;5.670;2023-04-16T04:10:35;101991.16;;;13.47;60.42
69624;BME280;56843;52.020;5.670;2023-04-16T04:12:06;101994.66;;;13.47;60.58
69624;BME280;56843;52.020;5.670;2023-04-16T04:13:38;102005.38;;;13.47;60.52
69624;BME280;56843;52.020;5.670;2023-04-16T04:15:08;101993.84;;;13.47;60.38
69624;BME280;56843;52.020;5.670;2023-04-16T04:16:39;101997.34;;;13.47;60.49
69624;BME280;56843;52.020;5.670;2023-04-16T04:18:10;102009.63;;;13.48;60.41
69624;BME280;56843;52.020;5.670;2023-04-16T04:19:40;102006.19;;;13.48;60.24
69624;BME280;56843;52.020;5.670;2023-04-16T04:21:12;102006.94;;;13.48;60.49
69624;BME280;56843;52.020;5.670;2023-04-16T04:22:42;102012.31;;;13.48;60.33
69624;BME280;56843;52.020;5.670;2023-04-16T04:24:13;102008.06;;;13.47;60.60
69624;BME280;56843;52.020;5.670;2023-04-16T04:25:43;102008.88;;;13.48;60.52
69624;BME280;56843;52.020;5.670;2023-04-16T04:27:14;102015.31;;;13.47;60.68
69624;BME280;56843;52.020;5.670;2023-04-16T04:28:45;102015.00;;;13.48;60.60
69624;BME280;56843;52.020;5.670;2023-04-16T04:30:16;102017.69;;;13.48;60.69
69624;BME280;56843;52.020;5.670;2023-04-16T04:31:47;102012.31;;;13.48;60.60
69624;BME280;56843;52.020;5.670;2023-04-16T04:33:19;102016.91;;;13.48;60.43
69624;BME280;56843;52.020;5.670;2023-04-16T04:34:51;102013.44;;;13.47;60.58
69624;BME280;56843;52.020;5.670;2023-04-16T04:36:21;102009.94;;;13.47;60.39
69624;BME280;56843;52.020;5.670;2023-04-16T04:37:51;102016.13;;;13.47;60.39
69624;BME280;56843;52.020;5.670;2023-04-16T04:39:23;102017.19;;;13.46;60.55
69624;BME280;56843;52.020;5.670;2023-04-16T04:40:54;102020.69;;;13.47;60.55
69624;BME280;56843;52.020;5.670;2023-04-16T04:42:26;102021.00;;;13.45;60.31
69624;BME280;56843;52.020;5.670;2023-04-16T04:43:58;102025.25;;;13.46;60.72
69624;BME280;56843;52.020;5.670;2023-04-16T04:45:29;102027.13;;;13.46;60.37
69624;BME280;56843;52.020;5.670;2023-04-16T04:46:59;102026.38;;;13.45;60.67
69624;BME280;56843;52.020;5.670;2023-04-16T04:48:30;102032.81;;;13.44;60.52
69624;BME280;56843;52.020;5.670;2023-04-16T04:50:00;102030.16;;;13.44;60.48
69624;BME280;56843;52.020;5.670;2023-04-16T04:51:31;102036.31;;;13.45;60.39
69624;BME280;56843;52.020;5.670;2023-04-16T04:53:02;102030.47;;;13.43;60.50
69624;BME280;56843;52.020;5.670;2023-04-16T04:54:36;102034.72;;;13.44;60.41
69624;BME280;56843;52.020;5.670;2023-04-16T04:56:10;102034.72;;;13.44;60.64
69624;BME280;56843;52.020;5.670;2023-04-16T04:57:41;102035.84;;;13.43;60.40
69624;BME280;56843;52.020;5.670;2023-04-16T04:59:12;102039.31;;;13.43;60.34
69624;BME280;56843;52.020;5.670;2023-04-16T05:00:43;102037.72;;;13.42;60.98
69624;BME280;56843;52.020;5.670;2023-04-16T05:02:14;102036.63;;;13.43;60.46
69624;BME280;56843;52.020;5.670;2023-04-16T05:03:45;102033.94;;;13.43;60.60
69624;BME280;56843;52.020;5.670;2023-04-16T05:05:15;102033.16;;;13.43;60.42
69624;BME280;56843;52.020;5.670;2023-04-16T05:06:46;102044.69;;;13.43;60.48
69624;BME280;56843;52.020;5.670;2023-04-16T05:08:16;102044.69;;;13.43;60.38
69624;BME280;56843;52.020;5.670;2023-04-16T05:09:47;102035.84;;;13.43;60.74
69624;BME280;56843;52.020;5.670;2023-04-16T05:11:17;102043.09;;;13.42;60.68
69624;BME280;56843;52.020;5.670;2023-04-16T05:12:47;102050.34;;;13.42;60.78
69624;BME280;56843;52.020;5.670;2023-04-16T05:14:18;102043.09;;;13.42;60.50
69624;BME280;56843;52.020;5.670;2023-04-16T05:15:48;102042.28;;;13.42;60.69
69624;BME280;56843;52.020;5.670;2023-04-16T05:17:19;102040.41;;;13.42;60.73
69624;BME280;56843;52.020;5.670;2023-04-16T05:18:49;102038.84;;;13.41;60.81
69624;BME280;56843;52.020;5.670;2023-04-16T05:20:23;102044.22;;;13.41;60.52
69624;BME280;56843;52.020;5.670;2023-04-16T05:21:53;102049.56;;;13.41;60.57
69624;BME280;56843;52.020;5.670;2023-04-16T05:23:24;102039.94;;;13.40;60.87
69624;BME280;56843;52.020;5.670;2023-04-16T05:24:54;102035.34;;;13.41;60.74
69624;BME280;56843;52.020;5.670;2023-04-16T05:26:25;102038.03;;;13.41;60.80
69624;BME280;56843;52.020;5.670;2023-04-16T05:27:55;102034.56;;;13.40;60.82
69624;BME280;56843;52.020;5.670;2023-04-16T05:29:26;102034.56;;;13.40;60.67
69624;BME280;56843;52.020;5.670;2023-04-16T05:30:57;102042.59;;;13.40;60.53
69624;BME280;56843;52.020;5.670;2023-04-16T05:32:27;102043.69;;;13.39;60.75
69624;BME280;56843;52.020;5.670;2023-04-16T05:33:58;102039.44;;;13.38;60.68
69624;BME280;56843;52.020;5.670;2023-04-16T05:35:28;102043.69;;;13.39;60.71
69624;BME280;56843;52.020;5.670;2023-04-16T05:36:59;102050.97;;;13.39;60.85
69624;BME280;56843;52.020;5.670;2023-04-16T05:38:30;102054.44;;;13.39;60.75
69624;BME280;56843;52.020;5.670;2023-04-16T05:40:01;102048.59;;;13.37;60.80
69624;BME280;56843;52.020;5.670;2023-04-16T05:41:32;102057.75;;;13.36;60.88
69624;BME280;56843;52.020;5.670;2023-04-16T05:43:02;102054.13;;;13.32;61.19
69624;BME280;56843;52.020;5.670;2023-04-16T05:44:33;102053.63;;;13.30;61.20
69624;BME280;56843;52.020;5.670;2023-04-16T05:46:12;102055.81;;;13.28;61.27
69624;BME280;56843;52.020;5.670;2023-04-16T05:47:43;102058.50;;;13.28;61.14
69624;BME280;56843;52.020;5.670;2023-04-16T05:49:16;102055.03;;;13.27;61.10
69624;BME280;56843;52.020;5.670;2023-04-16T05:50:48;102050.94;;;13.30;60.95
69624;BME280;56843;52.020;5.670;2023-04-16T05:52:19;102051.72;;;13.31;61.08
69624;BME280;56843;52.020;5.670;2023-04-16T05:53:50;102057.88;;;13.31;61.12
69624;BME280;56843;52.020;5.670;2023-04-16T05:55:20;102059.47;;;13.32;61.20
69624;BME280;56843;52.020;5.670;2023-04-16T05:56:51;102057.88;;;13.31;61.13
69624;BME280;56843;52.020;5.670;2023-04-16T05:58:21;102060.88;;;13.30;61.21
69624;BME280;56843;52.020;5.670;2023-04-16T05:59:52;102070.50;;;13.31;60.99
69624;BME280;56843;52.020;5.670;2023-04-16T06:01:22;102062.44;;;13.31;60.89
69624;BME280;56843;52.020;5.670;2023-04-16T06:02:52;102064.84;;;13.32;61.08
69624;BME280;56843;52.020;5.670;2023-04-16T06:04:23;102069.72;;;13.30;60.95
69624;BME280;56843;52.020;5.670;2023-04-16T06:05:54;102071.28;;;13.31;61.22
69624;BME280;56843;52.020;5.670;2023-04-16T06:07:24;102064.38;;;13.30;61.06
69624;BME280;56843;52.020;5.670;2023-04-16T06:08:55;102072.41;;;13.30;60.92
69624;BME280;56843;52.020;5.670;2023-04-16T06:10:25;102077.78;;;13.30;60.95
69624;BME280;56843;52.020;5.670;2023-04-16T06:11:58;102082.81;;;13.32;61.03
69624;BME280;56843;52.020;5.670;2023-04-16T06:13:29;102075.09;;;13.30;60.88
69624;BME280;56843;52.020;5.670;2023-04-16T06:15:00;102079.34;;;13.31;60.92
69624;BME280;56843;52.020;5.670;2023-04-16T06:16:32;102079.34;;;13.31;61.05
69624;BME280;56843;52.020;5.670;2023-04-16T06:18:03;102072.41;;;13.30;61.38
69624;BME280;56843;52.020;5.670;2023-04-16T06:19:33;102075.88;;;13.31;61.23
69624;BME280;56843;52.020;5.670;2023-04-16T06:21:04;102072.41;;;13.30;61.14
69624;BME280;56843;52.020;5.670;2023-04-16T06:22:36;102079.66;;;13.30;61.17
69624;BME280;56843;52.020;5.670;2023-04-16T06:24:07;102074.31;;;13.30;61.35
69624;BME280;56843;52.020;5.670;2023-04-16T06:25:37;102081.56;;;13.29;61.21
69624;BME280;56843;52.020;5.670;2023-04-16T06:27:10;102083.16;;;13.30;61.34
69624;BME280;56843;52.020;5.670;2023-04-16T06:28:44;102086.13;;;13.28;61.26
69624;BME280;56843;52.020;5.670;2023-04-16T06:30:15;102084.22;;;13.29;61.43
69624;BME280;56843;52.020;5.670;2023-04-16T06:31:45;102078.88;;;13.29;61.36
69624;BME280;56843;52.020;5.670;2023-04-16T06:33:17;102092.75;;;13.31;61.04
69624;BME280;56843;52.020;5.670;2023-04-16T06:34:47;102087.72;;;13.30;61.25
69624;BME280;56843;52.020;5.670;2023-04-16T06:36:18;102084.72;;;13.31;61.10
69624;BME280;56843;52.020;5.670;2023-04-16T06:37:48;102091.19;;;13.30;61.24
69624;BME280;56843;52.020;5.670;2023-04-16T06:39:19;102090.41;;;13.30;61.04
69624;BME280;56843;52.020;5.670;2023-04-16T06:40:53;102094.81;;;13.25;61.25
69624;BME280;56843;52.020;5.670;2023-04-16T06:42:23;102099.25;;;13.30;60.99
69624;BME280;56843;52.020;5.670;2023-04-16T06:43:57;102090.41;;;13.30;61.06
69624;BME280;56843;52.020;5.670;2023-04-16T06:45:30;102095.75;;;13.30;61.54
69624;BME280;56843;52.020;5.670;2023-04-16T06:47:00;102100.34;;;13.29;61.07
69624;BME280;56843;52.020;5.670;2023-04-16T06:48:33;102098.72;;;13.28;61.36
69624;BME280;56843;52.020;5.670;2023-04-16T06:50:04;102102.22;;;13.28;61.06
69624;BME280;56843;52.020;5.670;2023-04-16T06:51:37;102104.09;;;13.28;61.08
69624;BME280;56843;52.020;5.670;2023-04-16T06:53:07;102110.25;;;13.28;61.03
69624;BME280;56843;52.020;5.670;2023-04-16T06:54:38;102110.25;;;13.28;61.27
69624;BME280;56843;52.020;5.670;2023-04-16T06:56:08;102118.78;;;13.31;61.22
69624;BME280;56843;52.020;5.670;2023-04-16T06:57:39;102110.25;;;13.28;60.98
69624;BME280;56843;52.020;5.670;2023-04-16T06:59:10;102111.06;;;13.29;61.22
69624;BME280;56843;52.020;5.670;2023-04-16T07:00:40;102115.63;;;13.28;61.21
69624;BME280;56843;52.020;5.670;2023-04-16T07:02:11;102122.88;;;13.28;61.08
69624;BME280;56843;52.020;5.670;2023-04-16T07:03:41;102121.63;;;13.25;61.09
69624;BME280;56843;52.020;5.670;2023-04-16T07:05:12;102127.59;;;13.22;61.28
69624;BME280;56843;52.020;5.670;2023-04-16T07:06:42;102127.91;;;13.21;61.58
69624;BME280;56843;52.020;5.670;2023-04-16T07:08:12;102123.63;;;13.20;61.76
69624;BME280;56843;52.020;5.670;2023-04-16T07:09:43;102127.13;;;13.20;61.56
69624;BME280;56843;52.020;5.670;2023-04-16T07:11:14;102124.13;;;13.22;61.47
69624;BME280;56843;52.020;5.670;2023-04-16T07:12:44;102130.75;;;13.24;61.21
69624;BME280;56843;52.020;5.670;2023-04-16T07:14:15;102125.09;;;13.26;61.55
69624;BME280;56843;52.020;5.670;2023-04-16T07:15:45;102126.84;;;13.31;61.38
69624;BME280;56843;52.020;5.670;2023-04-16T07:17:16;102132.69;;;13.33;61.43
69624;BME280;56843;52.020;5.670;2023-04-16T07:18:46;102129.25;;;13.32;61.26
69624;BME280;56843;52.020;5.670;2023-04-16T07:20:17;102131.00;;;13.37;61.43
69624;BME280;56843;52.020;5.670;2023-04-16T07:21:47;102137.63;;;13.39;61.22
69624;BME280;56843;52.020;5.670;2023-04-16T07:23:18;102130.06;;;13.41;61.03
69624;BME280;56843;52.020;5.670;2023-04-16T07:24:48;102128.63;;;13.44;61.05
69624;BME280;56843;52.020;5.670;2023-04-16T07:26:19;102134.31;;;13.42;61.01
69624;BME280;56843;52.020;5.670;2023-04-16T07:27:50;102133.72;;;13.45;60.66
69624;BME280;56843;52.020;5.670;2023-04-16T07:29:21;102133.88;;;13.49;61.05
69624;BME280;56843;52.020;5.670;2023-04-16T07:30:51;102132.47;;;13.51;60.51
69624;BME280;56843;52.020;5.670;2023-04-16T07:32:22;102142.88;;;13.53;60.80
69624;BME280;56843;52.020;5.670;2023-04-16T07:33:53;102148.44;;;13.56;60.68
69624;BME280;56843;52.020;5.670;2023-04-16T07:35:24;102150.00;;;13.57;60.53
69624;BME280;56843;52.020;5.670;2023-04-16T07:36:55;102148.94;;;13.58;60.38
69624;BME280;56843;52.020;5.670;2023-04-16T07:38:25;102148.28;;;13.61;60.32
69624;BME280;56843;52.020;5.670;2023-04-16T07:40:00;102147.19;;;13.62;60.44
69624;BME280;56843;52.020;5.670;2023-04-16T07:41:31;102152.56;;;13.62;60.20
69624;BME280;56843;52.020;5.670;2023-04-16T07:43:01;102155.72;;;13.64;60.47
69624;BME280;56843;52.020;5.670;2023-04-16T07:44:34;102155.13;;;13.67;60.43
69624;BME280;56843;52.020;5.670;2023-04-16T07:46:07;102160.97;;;13.69;60.14
69624;BME280;56843;52.020;5.670;2023-04-16T07:47:37;102159.09;;;13.70;60.14
69624;BME280;56843;52.020;5.670;2023-04-16T07:49:08;102162.53;;;13.70;60.20
69624;BME280;56843;52.020;5.670;2023-04-16T07:50:38;102160.34;;;13.72;60.41
69624;BME280;56843;52.020;5.670;2023-04-16T07:52:11;102161.94;;;13.73;60.13
69624;BME280;56843;52.020;5.670;2023-04-16T07:53:41;102169.66;;;13.75;60.05
69624;BME280;56843;52.020;5.670;2023-04-16T07:55:12;102174.75;;;13.76;60.12
69624;BME280;56843;52.020;5.670;2023-04-16T07:56:43;102169.06;;;13.78;60.02
69624;BME280;56843;52.020;5.670;2023-04-16T07:58:14;102169.06;;;13.78;60.32